createdAt,value
2022-10-22T00:02:27.944Z,98950.19
2022-10-22T00:04:57.253Z,98940.19
2022-10-22T00:07:24.577Z,98913.19
2022-10-22T00:09:51.493Z,98934.69
2022-10-22T00:12:18.507Z,98966.09
2022-10-22T00:14:45.473Z,98946.53
2022-10-22T00:17:12.191Z,98951.31
2022-10-22T00:19:40.020Z,98950.88
2022-10-22T00:22:08.714Z,98928.25
2022-10-22T00:24:37.751Z,98902.91
2022-10-22T00:27:05.814Z,98946.53
2022-10-22T00:29:33.052Z,98938.34
2022-10-22T00:31:59.794Z,98948.38
2022-10-22T00:34:26.908Z,98954.75
2022-10-22T00:36:53.803Z,98960.38
2022-10-22T00:39:22.670Z,98951.19
2022-10-22T00:41:51.375Z,98949.22
2022-10-22T00:44:55.710Z,98945.56
2022-10-22T00:47:25.175Z,98927.56
2022-10-22T00:49:53.762Z,98919.25
2022-10-22T00:52:21.462Z,98904.19
2022-10-22T00:54:48.553Z,98917.41
2022-10-22T00:57:16.902Z,98927.84
2022-10-22T00:59:43.761Z,98925.53
2022-10-22T01:02:10.688Z,98881.66
2022-10-22T01:04:37.643Z,98911.38
2022-10-22T01:07:04.721Z,98913.63
2022-10-22T01:09:44.847Z,98911.50
2022-10-22T01:12:39.342Z,98918.97
2022-10-22T01:15:18.075Z,98916.44
2022-10-22T01:18:00.133Z,98909.38
2022-10-22T01:20:52.645Z,98896.44
2022-10-22T01:24:16.662Z,98931.22
2022-10-22T01:26:49.480Z,98921.22
2022-10-22T01:29:22.296Z,98913.16
2022-10-22T01:31:56.986Z,98894.53
2022-10-22T01:34:26.003Z,98886.72
2022-10-22T01:36:54.792Z,98895.72
2022-10-22T01:39:23.536Z,98868.75
2022-10-22T01:41:51.128Z,98891.13
2022-10-22T01:47:11.162Z,98868.53
2022-10-22T01:50:03.216Z,98860.09
2022-10-22T01:52:38.919Z,98878.41
2022-10-22T01:55:23.886Z,98871.56
2022-10-22T01:58:10.251Z,98847.97
2022-10-22T02:00:40.216Z,98889.38
2022-10-22T02:03:10.845Z,98881.84
2022-10-22T02:05:44.664Z,98872.25
2022-10-22T02:08:20.225Z,98858.22
2022-10-22T02:10:49.633Z,98859.09
2022-10-22T02:13:21.638Z,98852.75
2022-10-22T02:15:52.016Z,98853.75
2022-10-22T02:18:22.879Z,98849.81
2022-10-22T02:20:50.782Z,98849.03
2022-10-22T02:23:17.762Z,98860.16
2022-10-22T02:25:49.560Z,98857.56
2022-10-22T02:28:58.834Z,98869.28
2022-10-22T02:31:31.164Z,98873.94
2022-10-22T02:34:05.429Z,98875.34
2022-10-22T02:36:32.411Z,98884.38
2022-10-22T02:38:59.992Z,98892.09
2022-10-22T02:41:27.203Z,98887.59
2022-10-22T02:43:55.641Z,98887.69
2022-10-22T02:46:23.574Z,98883.66
2022-10-22T02:48:50.417Z,98873.38
2022-10-22T02:51:17.199Z,98878.03
2022-10-22T02:53:43.886Z,98887.59
2022-10-22T02:56:12.002Z,98874.38
2022-10-22T02:58:38.721Z,98856.47
2022-10-22T03:01:05.570Z,98848.59
2022-10-22T03:03:32.300Z,98852.41
2022-10-22T03:05:59.141Z,98837.91
2022-10-22T03:08:26.284Z,98831.97
2022-10-22T03:10:53.032Z,98833.81
2022-10-22T03:13:19.755Z,98824.94
2022-10-22T03:15:49.471Z,98819.59
2022-10-22T03:18:17.094Z,98831.84
2022-10-22T03:20:44.382Z,98844.66
2022-10-22T03:23:14.949Z,98845.09
2022-10-22T03:25:43.657Z,98848.06
2022-10-22T03:28:13.557Z,98853.84
2022-10-22T03:30:40.229Z,98847.22
2022-10-22T03:33:06.952Z,98868.06
2022-10-22T03:35:42.803Z,98875.91
2022-10-22T03:38:09.640Z,98862.81
2022-10-22T03:40:36.342Z,98866.63
2022-10-22T03:43:03.162Z,98865.78
2022-10-22T03:45:29.957Z,98882.66
2022-10-22T03:47:56.696Z,98880.84
2022-10-22T03:50:23.550Z,98876.06
2022-10-22T03:52:50.265Z,98876.91
2022-10-22T03:55:17.272Z,98875.16
2022-10-22T03:57:43.988Z,98872.50
2022-10-22T04:00:11.033Z,98873.09
2022-10-22T04:02:37.735Z,98886.63
2022-10-22T04:05:04.747Z,98895.06
2022-10-22T04:07:31.674Z,98901.78
2022-10-22T04:09:58.408Z,98893.09
2022-10-22T04:12:25.161Z,98907.03
2022-10-22T04:14:51.926Z,98899.69
2022-10-22T04:17:18.712Z,98911.09
2022-10-22T04:19:45.543Z,98917.72
2022-10-22T04:22:12.256Z,98915.88
2022-10-22T04:24:39.163Z,98904.78
2022-10-22T04:27:05.908Z,98911.41
2022-10-22T04:29:32.635Z,98906.84
2022-10-22T04:31:59.391Z,98893.59
2022-10-22T04:34:29.322Z,98889.81
2022-10-22T04:36:56.402Z,98878.13
2022-10-22T04:39:23.111Z,98877.88
2022-10-22T04:41:49.896Z,98884.38
2022-10-22T04:44:18.612Z,98890.66
2022-10-22T04:46:45.865Z,98901.94
2022-10-22T04:49:12.677Z,98902.66
2022-10-22T04:51:39.460Z,98916.88
2022-10-22T04:54:06.377Z,98918.28
2022-10-22T04:56:33.246Z,98928.69
2022-10-22T04:59:03.136Z,98929.13
2022-10-22T05:01:33.893Z,98942.06
2022-10-22T05:04:02.903Z,98954.59
2022-10-22T05:06:31.149Z,98943.19
2022-10-22T05:09:01.210Z,98945.16
2022-10-22T05:11:34.062Z,98963.19
2022-10-22T05:14:02.831Z,98977.44
2022-10-22T05:16:30.302Z,98980.09
2022-10-22T05:18:59.145Z,98983.34
2022-10-22T05:21:26.444Z,98996.88
2022-10-22T05:23:54.977Z,99005.03
2022-10-22T05:26:23.771Z,99014.78
2022-10-22T05:28:51.131Z,99011.94
2022-10-22T05:31:19.004Z,99029.41
2022-10-22T05:33:46.971Z,99036.16
2022-10-22T05:36:17.618Z,99055.19
2022-10-22T05:38:44.376Z,99039.13
2022-10-22T05:41:13.851Z,99046.88
2022-10-22T05:43:40.791Z,99051.09
2022-10-22T05:46:12.981Z,99045.88
2022-10-22T05:48:40.114Z,99054.59
2022-10-22T05:51:11.914Z,99070.41
2022-10-22T05:53:41.692Z,99069.72
2022-10-22T05:56:14.195Z,99051.09
2022-10-22T05:58:41.497Z,99029.41
2022-10-22T06:01:35.702Z,99035.97
2022-10-22T06:04:05.431Z,99036.13
2022-10-22T06:06:35.830Z,99043.72
2022-10-22T06:12:10.945Z,99084.50
2022-10-22T06:14:37.787Z,99082.66
2022-10-22T06:17:04.566Z,99078.00
2022-10-22T06:19:31.423Z,99075.69
2022-10-22T06:21:58.346Z,99090.88
2022-10-22T06:24:25.155Z,99105.50
2022-10-22T06:26:53.446Z,99101.75
2022-10-22T06:29:20.367Z,99100.13
2022-10-22T06:31:47.971Z,99093.84
2022-10-22T06:34:15.798Z,99100.56
2022-10-22T06:36:44.795Z,99124.91
2022-10-22T06:39:16.300Z,99142.06
2022-10-22T06:41:43.032Z,99135.56
2022-10-22T06:44:14.755Z,99137.25
2022-10-22T06:46:43.530Z,99109.56
2022-10-22T06:49:14.456Z,99132.59
2022-10-22T06:51:41.984Z,99129.25
2022-10-22T06:54:08.946Z,99156.19
2022-10-22T06:56:35.725Z,99154.97
2022-10-22T06:59:02.506Z,99140.28
2022-10-22T07:01:31.989Z,99154.41
2022-10-22T07:03:59.444Z,99152.44
2022-10-22T07:06:28.218Z,99143.97
2022-10-22T07:08:56.757Z,99155.63
2022-10-22T07:11:29.332Z,99165.94
2022-10-22T07:13:59.212Z,99160.41
2022-10-22T07:16:29.652Z,99170.53
2022-10-22T07:18:59.543Z,99174.53
2022-10-22T07:21:26.318Z,99180.41
2022-10-22T07:24:01.572Z,99172.41
2022-10-22T07:26:32.754Z,99172.25
2022-10-22T07:29:00.796Z,99169.59
2022-10-22T07:31:28.046Z,99168.38
2022-10-22T07:33:54.772Z,99175.75
2022-10-22T07:36:21.938Z,99162.31
2022-10-22T07:38:54.033Z,99184.50
2022-10-22T07:41:20.986Z,99186.91
2022-10-22T07:43:47.690Z,99210.19
2022-10-22T07:46:14.384Z,99208.75
2022-10-22T07:48:41.430Z,99199.56
2022-10-22T07:51:08.163Z,99198.91
2022-10-22T07:53:35.159Z,99192.94
2022-10-22T07:56:01.916Z,99188.28
2022-10-22T07:58:28.935Z,99190.91
2022-10-22T08:00:57.964Z,99196.00
2022-10-22T08:03:24.874Z,99194.97
2022-10-22T08:05:52.302Z,99200.69
2022-10-22T08:08:19.099Z,99193.63
2022-10-22T08:10:47.370Z,99190.94
2022-10-22T08:13:14.711Z,99181.88
2022-10-22T08:18:14.949Z,99198.56
2022-10-22T08:20:42.985Z,99187.53
2022-10-22T08:23:09.843Z,99178.22
2022-10-22T08:25:36.552Z,99176.75
2022-10-22T08:28:03.683Z,99174.63
2022-10-22T08:30:30.538Z,99176.22
2022-10-22T08:32:57.360Z,99189.50
2022-10-22T08:35:24.093Z,99191.84
2022-10-22T08:37:50.882Z,99168.13
2022-10-22T08:40:32.079Z,99187.78
2022-10-22T08:43:34.282Z,99178.09
2022-10-22T08:46:25.574Z,99183.94
2022-10-22T08:48:59.015Z,99182.22
2022-10-22T08:51:30.851Z,99169.94
2022-10-22T08:54:18.958Z,99189.03
2022-10-22T08:56:56.581Z,99186.88
2022-10-22T08:59:36.986Z,99192.06
2022-10-22T09:02:16.592Z,99146.38
2022-10-22T09:04:53.122Z,99148.44
2022-10-22T09:07:20.756Z,99177.53
2022-10-22T09:09:51.982Z,99181.84
2022-10-22T09:12:22.640Z,99162.78
2022-10-22T09:14:49.504Z,99193.41
2022-10-22T09:17:28.535Z,99194.03
2022-10-22T09:20:01.365Z,99193.94
2022-10-22T09:22:32.583Z,99194.47
2022-10-22T09:25:11.342Z,99197.69
2022-10-22T09:27:38.547Z,99197.00
2022-10-22T09:30:06.138Z,99188.25
2022-10-22T09:32:33.387Z,99195.50
2022-10-22T09:35:00.249Z,99158.56
2022-10-22T09:37:29.958Z,99170.31
2022-10-22T09:39:59.076Z,99152.44
2022-10-22T09:42:26.018Z,99155.47
2022-10-22T09:44:55.761Z,99210.22
2022-10-22T09:50:43.001Z,99206.97
2022-10-22T09:53:23.039Z,99203.22
2022-10-22T09:55:58.786Z,99184.53
2022-10-22T09:58:26.189Z,99220.44
2022-10-22T10:00:58.846Z,99220.63
2022-10-22T10:03:29.354Z,99222.34
2022-10-22T10:06:02.986Z,99228.94
2022-10-22T10:08:32.864Z,99195.41
2022-10-22T10:11:05.866Z,99232.78
2022-10-22T10:13:43.801Z,99210.47
2022-10-22T10:16:39.844Z,99222.31
2022-10-22T10:19:29.137Z,99221.84
2022-10-22T10:22:13.451Z,99215.81
2022-10-22T10:24:42.996Z,99209.91
2022-10-22T10:27:23.003Z,99211.28
2022-10-22T10:29:52.608Z,99218.22
2022-10-22T10:32:38.459Z,99217.53
2022-10-22T10:35:25.654Z,99218.22
2022-10-22T10:38:20.291Z,99216.88
2022-10-22T10:41:04.303Z,99219.91
2022-10-22T10:43:56.599Z,99224.13
2022-10-22T10:46:44.428Z,99203.34
2022-10-22T10:49:20.261Z,99160.97
2022-10-22T10:52:31.240Z,99208.66
2022-10-22T10:55:17.767Z,99210.84
2022-10-22T10:58:02.392Z,99187.16
2022-10-22T11:00:36.084Z,99200.72
2022-10-22T11:03:36.852Z,99203.41
2022-10-22T11:06:09.927Z,99194.41
2022-10-22T11:08:45.558Z,99180.25
2022-10-22T11:11:30.161Z,99197.63
2022-10-22T11:14:03.304Z,99165.16
2022-10-22T11:16:39.354Z,99211.19
2022-10-22T11:19:22.632Z,99204.44
2022-10-22T11:22:30.346Z,99200.22
2022-10-22T11:25:14.596Z,99221.66
2022-10-22T11:28:03.171Z,99222.50
2022-10-22T11:30:38.137Z,99215.22
2022-10-22T11:33:10.253Z,99217.25
2022-10-22T11:35:43.991Z,99205.28
2022-10-22T11:38:25.551Z,99199.41
2022-10-22T11:40:59.357Z,99209.16
2022-10-22T11:43:38.326Z,99193.66
2022-10-22T11:46:17.375Z,99209.19
2022-10-22T11:48:44.246Z,99206.81
2022-10-22T11:51:37.256Z,99205.78
2022-10-22T11:54:35.034Z,99203.41
2022-10-22T11:57:17.398Z,99216.44
2022-10-22T11:59:47.017Z,99211.19
2022-10-22T12:02:29.003Z,99207.28
2022-10-22T12:05:19.307Z,99207.66
2022-10-22T12:08:21.603Z,99205.13
2022-10-22T12:11:05.679Z,99170.06
2022-10-22T12:13:52.903Z,99206.13
2022-10-22T12:16:32.335Z,99209.03
2022-10-22T12:19:10.675Z,99206.31
2022-10-22T12:21:43.821Z,99191.00
2022-10-22T12:24:17.212Z,99188.16
2022-10-22T12:26:46.061Z,99178.88
2022-10-22T12:29:15.792Z,99187.00
2022-10-22T12:31:46.962Z,99195.38
2022-10-22T12:34:21.526Z,99151.59
2022-10-22T12:36:49.982Z,99145.03
2022-10-22T12:39:26.040Z,99181.41
2022-10-22T12:41:54.312Z,99179.56
2022-10-22T12:44:21.310Z,99183.72
2022-10-22T12:46:52.970Z,99170.25
2022-10-22T12:49:26.124Z,99154.91
2022-10-22T12:51:52.865Z,99170.91
2022-10-22T12:54:29.990Z,99171.91
2022-10-22T12:56:57.541Z,99189.81
2022-10-22T12:59:35.043Z,99192.69
2022-10-22T13:02:02.726Z,99177.13
2022-10-22T13:04:38.034Z,99152.38
2022-10-22T13:07:06.643Z,99192.34
2022-10-22T13:09:47.237Z,99195.16
2022-10-22T13:12:18.705Z,99183.72
2022-10-22T13:14:46.982Z,99150.06
2022-10-22T13:17:16.873Z,99188.78
2022-10-22T13:19:55.470Z,99191.44
2022-10-22T13:22:31.217Z,99184.19
2022-10-22T13:25:29.399Z,99170.31
2022-10-22T13:28:13.274Z,99178.59
2022-10-22T13:30:51.542Z,99136.81
2022-10-22T13:33:27.121Z,99167.28
2022-10-22T13:35:56.176Z,99134.31
2022-10-22T13:38:25.512Z,99130.59
2022-10-22T13:40:52.406Z,99155.88
2022-10-22T13:43:19.693Z,99170.22
2022-10-22T13:45:48.972Z,99184.88
2022-10-22T13:48:19.249Z,99178.81
2022-10-22T13:50:46.465Z,99174.59
2022-10-22T13:53:19.563Z,99178.75
2022-10-22T13:55:46.425Z,99145.72
2022-10-22T13:58:21.910Z,99185.66
2022-10-22T14:00:52.703Z,99190.56
2022-10-22T14:03:21.938Z,99189.22
2022-10-22T14:05:49.462Z,99184.28
2022-10-22T14:08:23.570Z,99184.66
2022-10-22T14:10:50.380Z,99152.66
2022-10-22T14:13:18.753Z,99199.84
2022-10-22T14:15:48.485Z,99188.88
2022-10-22T14:18:28.721Z,99187.19
2022-10-22T14:20:58.465Z,99179.28
2022-10-22T14:23:27.619Z,99200.88
2022-10-22T14:25:54.904Z,99193.31
2022-10-22T14:28:21.681Z,99164.16
2022-10-22T14:30:49.390Z,99205.13
2022-10-22T14:33:32.132Z,99190.50
2022-10-22T14:36:00.723Z,99170.41
2022-10-22T14:38:28.715Z,99194.13
2022-10-22T14:40:56.172Z,99198.22
2022-10-22T14:43:25.751Z,99175.13
2022-10-22T14:45:52.549Z,99168.00
2022-10-22T14:50:47.385Z,99192.78
2022-10-22T14:53:16.891Z,99197.91
2022-10-22T14:55:47.590Z,99208.56
2022-10-22T14:58:14.992Z,99193.13
2022-10-22T15:00:43.417Z,99206.97
2022-10-22T15:03:11.932Z,99208.81
2022-10-22T15:05:45.163Z,99206.13
2022-10-22T15:08:13.578Z,99198.34
2022-10-22T15:10:41.129Z,99200.03
2022-10-22T15:13:08.286Z,99201.56
2022-10-22T15:15:39.641Z,99184.19
2022-10-22T15:18:07.599Z,99194.59
2022-10-22T15:20:34.379Z,99213.00
2022-10-22T15:23:01.157Z,99228.38
2022-10-22T15:25:28.904Z,99225.50
2022-10-22T15:27:59.668Z,99222.50
2022-10-22T15:30:32.005Z,99240.56
2022-10-22T15:32:59.008Z,99242.75
2022-10-22T15:35:28.736Z,99241.28
2022-10-22T15:37:55.511Z,99237.53
2022-10-22T15:40:22.246Z,99253.78
2022-10-22T15:42:49.256Z,99266.59
2022-10-22T15:45:16.304Z,99264.56
2022-10-22T15:47:47.669Z,99278.44
2022-10-22T15:50:15.240Z,99273.91
2022-10-22T15:52:42.006Z,99268.69
2022-10-22T15:55:10.761Z,99257.22
2022-10-22T15:57:38.301Z,99275.28
2022-10-22T16:00:07.034Z,99277.00
2022-10-22T16:02:34.084Z,99272.91
2022-10-22T16:05:00.912Z,99294.34
2022-10-22T16:07:27.654Z,99289.63
2022-10-22T16:10:00.113Z,99299.06
2022-10-22T16:12:26.946Z,99304.81
2022-10-22T16:14:53.685Z,99314.09
2022-10-22T16:17:20.481Z,99317.97
2022-10-22T16:19:48.595Z,99323.38
2022-10-22T16:22:15.859Z,99325.06
2022-10-22T16:24:43.102Z,99326.56
2022-10-22T16:27:10.422Z,99323.00
2022-10-22T16:29:39.294Z,99329.78
2022-10-22T16:32:06.680Z,99339.59
2022-10-22T16:34:34.082Z,99347.00
2022-10-22T16:37:01.809Z,99348.34
2022-10-22T16:39:29.200Z,99349.84
2022-10-22T16:41:56.294Z,99353.88
2022-10-22T16:44:23.810Z,99366.88
2022-10-22T16:46:50.982Z,99361.28
2022-10-22T16:49:18.100Z,99366.34
2022-10-22T16:51:45.127Z,99367.22
2022-10-22T16:54:13.603Z,99375.13
2022-10-22T16:56:40.578Z,99377.28
2022-10-22T16:59:08.217Z,99366.66
2022-10-22T17:01:40.297Z,99381.50
2022-10-22T17:04:09.617Z,99368.50
2022-10-22T17:06:37.136Z,99373.53
2022-10-22T17:09:04.738Z,99386.19
2022-10-22T17:11:37.048Z,99385.88
2022-10-22T17:14:06.634Z,99391.28
2022-10-22T17:16:34.266Z,99390.47
2022-10-22T17:19:04.438Z,99401.13
2022-10-22T17:21:32.401Z,99412.28
2022-10-22T17:24:01.504Z,99409.91
2022-10-22T17:26:29.244Z,99393.66
2022-10-22T17:28:56.474Z,99406.19
2022-10-22T17:31:37.574Z,99413.44
2022-10-22T17:34:10.262Z,99413.06
2022-10-22T17:36:40.312Z,99413.25
2022-10-22T17:39:09.863Z,99419.97
2022-10-22T17:41:38.359Z,99417.97
2022-10-22T17:44:09.469Z,99417.06
2022-10-22T17:46:43.201Z,99428.22
2022-10-22T17:49:17.916Z,99431.16
2022-10-22T17:51:45.912Z,99423.88
2022-10-22T17:54:14.517Z,99434.94
2022-10-22T17:56:42.185Z,99430.81
2022-10-22T17:59:12.936Z,99419.50
2022-10-22T18:01:45.540Z,99417.13
2022-10-22T18:04:18.251Z,99433.44
2022-10-22T18:06:47.724Z,99428.75
2022-10-22T18:09:18.707Z,99429.38
2022-10-22T18:11:47.318Z,99421.31
2022-10-22T18:14:15.304Z,99425.16
2022-10-22T18:16:42.838Z,99431.00
2022-10-22T18:19:10.085Z,99436.22
2022-10-22T18:21:37.867Z,99441.00
2022-10-22T18:24:05.372Z,99442.41
2022-10-22T18:26:32.932Z,99450.09
2022-10-22T18:29:00.644Z,99451.94
2022-10-22T18:31:29.073Z,99457.56
2022-10-22T18:33:57.291Z,99449.44
2022-10-22T18:36:26.408Z,99470.97
2022-10-22T18:38:58.831Z,99466.78
2022-10-22T18:41:27.111Z,99473.63
2022-10-22T18:43:57.552Z,99460.69
2022-10-22T18:46:25.914Z,99465.94
2022-10-22T18:48:54.817Z,99467.84
2022-10-22T18:51:25.078Z,99473.00
2022-10-22T18:54:06.055Z,99466.75
2022-10-22T18:56:45.514Z,99461.56
2022-10-22T18:59:23.515Z,99457.66
2022-10-22T19:01:53.173Z,99470.53
2022-10-22T19:04:20.898Z,99456.47
2022-10-22T19:06:48.305Z,99462.22
2022-10-22T19:09:16.455Z,99461.84
2022-10-22T19:11:45.152Z,99454.22
2022-10-22T19:14:13.709Z,99460.31
2022-10-22T19:16:40.582Z,99460.75
2022-10-22T19:19:08.519Z,99466.44
2022-10-22T19:21:37.804Z,99463.34
2022-10-22T19:24:05.192Z,99454.28
2022-10-22T19:26:32.961Z,99460.13
2022-10-22T19:29:01.148Z,99462.97
2022-10-22T19:31:30.345Z,99479.25
2022-10-22T19:33:58.932Z,99482.81
2022-10-22T19:36:33.081Z,99479.97
2022-10-22T19:39:01.454Z,99477.38
2022-10-22T19:41:30.835Z,99480.34
2022-10-22T19:43:59.202Z,99478.41
2022-10-22T19:46:28.381Z,99476.50
2022-10-22T19:48:57.691Z,99484.28
2022-10-22T19:51:30.110Z,99480.00
2022-10-22T19:54:09.192Z,99481.59
2022-10-22T19:56:38.151Z,99476.38
2022-10-22T19:59:06.480Z,99476.94
2022-10-22T20:01:34.166Z,99481.72
2022-10-22T20:04:02.664Z,99483.78
2022-10-22T20:06:30.249Z,99483.03
2022-10-22T20:08:58.377Z,99491.66
2022-10-22T20:11:29.692Z,99490.56
2022-10-22T20:13:57.724Z,99490.72
2022-10-22T20:16:28.623Z,99489.56
2022-10-22T20:18:56.645Z,99494.53
2022-10-22T20:21:23.960Z,99492.69
2022-10-22T20:23:57.841Z,99489.44
2022-10-22T20:26:28.466Z,99485.53
2022-10-22T20:28:56.769Z,99497.84
2022-10-22T20:31:27.479Z,99502.38
2022-10-22T20:34:01.236Z,99502.09
2022-10-22T20:36:29.656Z,99508.91
2022-10-22T20:39:06.663Z,99516.28
2022-10-22T20:41:35.007Z,99518.81
2022-10-22T20:44:03.657Z,99516.88
2022-10-22T20:46:32.761Z,99533.13
2022-10-22T20:49:02.728Z,99523.63
2022-10-22T20:51:29.737Z,99521.22
2022-10-22T20:53:56.869Z,99525.75
2022-10-22T20:56:26.412Z,99482.34
2022-10-22T21:01:33.795Z,99496.34
2022-10-22T21:04:00.840Z,99487.59
2022-10-22T21:06:29.227Z,99517.13
2022-10-22T21:08:56.141Z,99494.50
2022-10-22T21:11:23.823Z,99472.22
2022-10-22T21:13:50.860Z,99508.38
2022-10-22T21:16:19.161Z,99505.09
2022-10-22T21:18:47.042Z,99449.44
2022-10-22T21:21:14.124Z,99499.16
2022-10-22T21:23:40.857Z,99492.09
2022-10-22T21:26:07.727Z,99463.16
2022-10-22T21:28:36.058Z,99444.78
2022-10-22T21:31:08.406Z,99484.63
2022-10-22T21:33:39.931Z,99500.88
2022-10-22T21:36:09.191Z,99494.09
2022-10-22T21:38:37.579Z,99506.09
2022-10-22T21:41:06.442Z,99486.47
2022-10-22T21:43:34.330Z,99512.19
2022-10-22T21:46:09.284Z,99494.81
2022-10-22T21:48:37.204Z,99522.78
2022-10-22T21:51:09.726Z,99518.94
2022-10-22T21:53:37.286Z,99513.69
2022-10-22T21:56:05.196Z,99484.81
2022-10-22T21:58:36.721Z,99522.59
2022-10-22T22:01:04.414Z,99515.34
2022-10-22T22:03:31.190Z,99516.59
2022-10-22T22:05:59.884Z,99523.81
2022-10-22T22:08:27.454Z,99511.81
2022-10-22T22:11:13.389Z,99518.53
2022-10-22T22:13:40.755Z,99508.16
2022-10-22T22:16:13.075Z,99509.75
2022-10-22T22:18:40.863Z,99531.94
2022-10-22T22:21:18.573Z,99527.56
2022-10-22T22:23:47.501Z,99524.50
2022-10-22T22:26:16.992Z,99525.72
2022-10-22T22:28:43.887Z,99527.59
2022-10-22T22:31:19.898Z,99524.53
2022-10-22T22:33:46.624Z,99513.16
2022-10-22T22:36:13.393Z,99519.50
2022-10-22T22:38:40.651Z,99523.06
2022-10-22T22:41:08.921Z,99510.06
2022-10-22T22:43:36.473Z,99526.75
2022-10-22T22:46:06.282Z,99505.66
2022-10-22T22:48:33.501Z,99512.34
2022-10-22T22:51:02.576Z,99488.19
2022-10-22T22:53:29.669Z,99542.19
2022-10-22T22:56:24.241Z,99539.47
2022-10-22T22:58:51.537Z,99528.22
2022-10-22T23:03:32.278Z,99540.16
2022-10-22T23:06:00.331Z,99537.16
2022-10-22T23:08:27.143Z,99537.78
2022-10-22T23:10:53.835Z,99548.38
2022-10-22T23:13:20.557Z,99541.81
2022-10-22T23:15:47.311Z,99551.09
2022-10-22T23:18:14.004Z,99548.50
2022-10-22T23:20:40.735Z,99552.75
2022-10-22T23:23:07.462Z,99519.88
2022-10-22T23:25:34.162Z,99551.31
2022-10-22T23:28:00.891Z,99537.06
2022-10-22T23:30:27.653Z,99537.06
2022-10-22T23:32:54.384Z,99527.94
2022-10-22T23:35:21.277Z,99532.31
2022-10-22T23:37:48.080Z,99529.22
2022-10-22T23:40:14.822Z,99519.75
2022-10-22T23:42:44.971Z,99494.41
2022-10-22T23:45:11.772Z,99531.19
2022-10-22T23:47:38.558Z,99540.22
2022-10-22T23:50:05.684Z,99537.16
2022-10-22T23:52:32.453Z,99543.09
2022-10-22T23:54:59.192Z,99491.47
2022-10-22T23:57:25.982Z,99538.03
2022-10-22T23:59:53.339Z,99541.91
